createdAt,value
2022-08-29T05:35:25.435Z,100.00
2022-08-29T05:55:21.565Z,96.42
2022-08-29T05:58:09.185Z,95.97
2022-08-29T06:01:01.282Z,95.39
2022-08-29T06:03:49.743Z,94.43
2022-08-29T06:06:37.014Z,93.04
2022-08-29T06:09:41.128Z,92.71
2022-08-29T06:12:38.361Z,92.28
2022-08-29T06:15:30.268Z,90.45
2022-08-29T06:18:18.445Z,91.61
2022-08-29T06:21:11.818Z,91.16
2022-08-29T06:23:59.884Z,93.15
2022-08-29T06:29:57.337Z,94.86
2022-08-29T06:32:47.353Z,94.58
2022-08-29T06:35:34.038Z,93.21
2022-08-29T06:38:21.007Z,92.52
2022-08-29T06:41:09.399Z,91.55
2022-08-29T06:43:58.665Z,90.88
2022-08-29T06:46:49.188Z,89.08
2022-08-29T06:49:36.137Z,88.13
2022-08-29T06:52:31.627Z,86.61
2022-08-29T06:55:24.164Z,85.10
2022-08-29T06:58:13.286Z,79.67
2022-08-29T07:04:14.670Z,78.49
2022-08-29T07:07:02.706Z,78.93
2022-08-29T07:09:50.874Z,75.98
2022-08-29T07:21:02.892Z,59.67
2022-08-29T07:23:51.344Z,55.85
2022-08-29T07:26:45.182Z,51.14
2022-08-29T07:29:50.888Z,49.04
2022-08-29T07:32:42.785Z,44.69
2022-08-29T07:35:31.020Z,43.49
2022-08-29T07:38:26.103Z,42.02
2022-08-29T07:41:40.502Z,40.50
2022-08-29T07:44:39.943Z,39.71
2022-08-29T07:50:50.554Z,39.93
2022-08-29T07:53:38.760Z,43.95
2022-08-29T08:00:52.564Z,50.01
2022-08-29T08:03:53.520Z,53.88
2022-08-29T08:11:14.080Z,49.41
2022-08-29T08:14:04.952Z,53.76
2022-08-29T08:16:52.090Z,55.98
2022-08-29T08:19:39.503Z,60.33
2022-08-29T08:22:26.708Z,61.12
2022-08-29T08:25:14.146Z,58.11
2022-08-29T08:28:00.869Z,60.50
2022-08-29T08:33:55.662Z,61.30
2022-08-29T08:36:47.516Z,61.32
2022-08-29T08:39:34.693Z,52.68
2022-08-29T08:42:32.915Z,45.73
2022-08-29T08:46:04.349Z,43.28
2022-08-29T08:48:53.075Z,44.12
2022-08-29T08:51:56.933Z,45.41
2022-08-29T08:54:52.419Z,41.28
2022-08-29T08:57:46.989Z,45.49
2022-08-29T09:00:46.213Z,50.30
2022-08-29T09:04:14.448Z,50.43
2022-08-29T09:14:02.666Z,55.09
2022-08-29T09:17:14.012Z,58.25
2022-08-29T09:20:02.902Z,58.44
2022-08-29T09:23:11.810Z,59.76
2022-08-29T09:27:09.720Z,59.33
2022-08-29T09:30:03.084Z,58.70
2022-08-29T09:37:05.462Z,62.04
2022-08-29T09:39:59.272Z,60.69
2022-08-29T09:43:01.378Z,61.47
2022-08-29T09:46:21.287Z,60.72
2022-08-29T09:49:14.874Z,60.89
2022-08-29T09:52:15.326Z,60.44
2022-08-29T09:55:41.573Z,59.31
2022-08-29T09:58:39.676Z,59.65
2022-08-29T10:01:28.190Z,57.58
2022-08-29T10:04:40.060Z,55.43
2022-08-29T10:07:42.698Z,56.54
2022-08-29T10:41:47.118Z,52.90
2022-08-29T10:48:10.216Z,56.48
2022-08-29T10:54:40.910Z,59.47
2022-08-29T10:57:50.765Z,63.13
2022-08-29T11:00:45.947Z,63.55
2022-08-29T11:03:40.550Z,63.25
2022-08-29T11:10:05.092Z,60.23
2022-08-29T11:43:12.236Z,58.91
2022-08-29T11:51:01.936Z,60.43
2022-08-29T12:03:30.935Z,63.34
2022-08-29T12:07:10.300Z,61.42
2022-08-29T12:10:04.297Z,61.70
2022-08-29T12:13:03.709Z,62.09
2022-08-29T12:15:56.624Z,64.49
2022-08-29T12:19:08.452Z,64.49
2022-08-29T13:39:47.877Z,62.48
2022-08-29T13:59:45.251Z,62.92
2022-08-29T14:03:27.349Z,63.17
2022-08-29T14:10:26.268Z,63.60
2022-08-29T15:02:20.196Z,66.11
2022-08-29T15:09:40.123Z,66.75
2022-08-29T15:12:35.994Z,67.79
2022-08-29T15:15:30.154Z,68.00
2022-08-29T15:19:33.703Z,68.63
2022-08-29T15:22:02.714Z,68.24
2022-08-29T15:24:56.647Z,67.92
2022-08-29T15:27:48.546Z,68.26
2022-08-29T15:34:47.897Z,67.90
2022-08-29T15:37:37.124Z,68.23
2022-08-29T15:40:28.367Z,69.74
2022-08-29T15:46:53.860Z,70.10
2022-08-29T15:52:56.189Z,70.20
2022-08-29T15:55:47.581Z,70.93
2022-08-29T16:02:48.322Z,72.94
2022-08-29T16:05:47.782Z,72.63
2022-08-29T16:41:56.069Z,69.80
2022-08-29T16:45:22.061Z,68.77
2022-08-29T16:48:17.684Z,68.89
2022-08-29T16:51:18.983Z,69.25
2022-08-29T16:54:06.789Z,69.89
2022-08-29T16:56:57.520Z,72.27
2022-08-29T16:59:44.206Z,70.59
2022-08-29T17:05:45.725Z,70.42
2022-08-29T17:08:31.354Z,72.40
2022-08-29T17:14:23.505Z,74.67
2022-08-29T17:20:38.690Z,75.71
2022-08-29T17:26:33.342Z,76.33
2022-08-29T17:32:38.182Z,75.95
2022-08-29T17:38:33.637Z,76.52
2022-08-29T17:44:29.694Z,76.87
2022-08-29T17:50:43.717Z,77.19
2022-08-29T17:59:52.743Z,76.52
2022-08-29T18:05:48.549Z,77.15
2022-08-29T18:11:51.502Z,78.01
2022-08-29T18:17:50.085Z,78.81
2022-08-29T18:23:52.109Z,77.65
2022-08-29T18:29:49.000Z,77.04
2022-08-29T18:35:41.709Z,77.13
2022-08-29T20:14:26.137Z,89.63
2022-08-29T20:17:30.632Z,89.51
2022-08-29T20:20:31.476Z,90.06
2022-08-29T20:23:22.916Z,90.30
2022-08-29T20:26:15.228Z,89.76
2022-08-29T20:29:07.403Z,89.65
2022-08-29T20:31:58.112Z,89.15
2022-08-29T20:35:04.933Z,88.96
2022-08-29T20:37:56.372Z,88.44
2022-08-29T20:40:48.249Z,88.32
2022-08-29T20:43:39.127Z,87.61
2022-08-29T20:46:26.156Z,87.35
2022-08-29T20:49:17.540Z,87.24
2022-08-29T20:52:06.868Z,86.84
2022-08-29T20:58:24.882Z,86.62
2022-08-29T21:01:17.403Z,86.51
2022-08-29T21:04:30.475Z,86.33
2022-08-29T21:08:43.502Z,86.68
2022-08-29T21:13:08.136Z,86.90
2022-08-29T21:19:56.033Z,87.70
2022-08-29T21:22:48.278Z,88.05
2022-08-29T21:25:37.233Z,88.79
2022-08-29T21:28:26.329Z,88.85
2022-08-29T21:31:17.245Z,89.20
2022-08-29T21:34:07.150Z,89.59
2022-08-29T21:36:54.689Z,89.23
2022-08-29T21:39:45.737Z,89.17
2022-08-29T21:42:34.831Z,88.29
2022-08-29T21:45:23.405Z,88.20
2022-08-29T21:48:12.549Z,87.80
2022-08-29T21:51:00.145Z,87.72
2022-08-29T21:53:49.789Z,87.71
2022-08-29T21:56:37.675Z,87.26
2022-08-29T21:59:28.451Z,87.55
2022-08-29T22:05:24.235Z,87.76
2022-08-29T22:08:14.042Z,87.95
2022-08-29T22:11:01.360Z,88.48
2022-08-29T22:13:49.137Z,88.95
2022-08-29T22:16:44.940Z,89.32
2022-08-29T22:19:36.338Z,89.06
2022-08-29T22:22:24.985Z,89.28
2022-08-29T22:25:12.011Z,89.31
2022-08-29T22:27:59.396Z,89.67
2022-08-29T22:30:47.064Z,89.72
2022-08-29T22:33:35.534Z,89.77
2022-08-29T22:36:22.741Z,89.50
2022-08-29T22:39:15.715Z,89.00
2022-08-29T22:42:03.652Z,89.13
2022-08-29T22:45:10.225Z,88.94
2022-08-29T22:47:59.216Z,89.28
2022-08-29T22:50:51.980Z,89.10
2022-08-29T22:54:06.682Z,88.91
2022-08-29T22:56:55.461Z,89.05
2022-08-29T22:59:45.384Z,88.73
2022-08-29T23:05:38.114Z,88.62
2022-08-29T23:11:31.824Z,87.90
2022-08-29T23:14:21.878Z,87.42
2022-08-29T23:17:10.246Z,87.60
2022-08-29T23:19:56.946Z,86.90
2022-08-29T23:22:45.740Z,86.42
2022-08-29T23:25:33.131Z,86.11
2022-08-29T23:28:21.398Z,85.98
2022-08-29T23:31:10.801Z,85.53
2022-08-29T23:33:58.164Z,85.68
2022-08-29T23:36:46.844Z,85.98
2022-08-29T23:39:33.963Z,85.88
2022-08-29T23:42:22.273Z,86.13
2022-08-29T23:45:11.490Z,85.85
2022-08-29T23:48:00.743Z,85.97
2022-08-29T23:50:49.035Z,85.88
2022-08-29T23:56:42.576Z,85.89
2022-08-29T23:59:47.494Z,86.25
